createdAt,value
2017-05-03T00:04:47.051Z,11.40
2017-05-03T00:07:15.349Z,11.40
2017-05-03T00:09:43.646Z,11.40
2017-05-03T00:12:11.987Z,11.40
2017-05-03T00:14:40.283Z,11.40
2017-05-03T00:17:08.582Z,11.40
2017-05-03T00:19:37.662Z,11.40
2017-05-03T00:22:06.721Z,11.40
2017-05-03T00:24:35.023Z,11.50
2017-05-03T00:27:03.368Z,11.50
2017-05-03T00:29:31.679Z,11.50
2017-05-03T00:31:59.998Z,11.50
2017-05-03T00:34:28.342Z,11.50
2017-05-03T00:37:02.423Z,11.50
2017-05-03T00:39:36.550Z,11.50
2017-05-03T00:42:10.750Z,11.50
2017-05-03T00:44:40.022Z,11.50
2017-05-03T00:47:23.935Z,11.50
2017-05-03T00:49:52.518Z,11.50
2017-05-03T00:52:34.246Z,11.50
2017-05-03T00:55:03.670Z,11.50
2017-05-03T00:57:38.902Z,11.50
2017-05-03T01:00:22.998Z,11.50
2017-05-03T01:05:53.331Z,11.40
2017-05-03T01:08:23.227Z,11.50
2017-05-03T01:10:57.843Z,11.40
2017-05-03T01:13:33.347Z,11.40
2017-05-03T01:16:07.986Z,11.40
2017-05-03T01:18:36.307Z,11.40
2017-05-03T01:21:10.832Z,11.40
2017-05-03T01:23:45.094Z,11.40
2017-05-03T01:26:17.107Z,11.40
2017-05-03T01:28:46.958Z,11.40
2017-05-03T01:31:27.238Z,11.30
2017-05-03T01:33:55.539Z,11.30
2017-05-03T01:36:39.119Z,11.30
2017-05-03T01:39:09.198Z,11.30
2017-05-03T01:41:45.106Z,11.30
2017-05-03T01:44:20.940Z,11.30
2017-05-03T01:46:49.283Z,11.30
2017-05-03T01:49:18.398Z,11.30
2017-05-03T01:51:46.698Z,11.30
2017-05-03T01:54:15.062Z,11.30
2017-05-03T01:56:43.434Z,11.30
2017-05-03T01:59:11.726Z,11.30
2017-05-03T02:01:40.393Z,11.40
2017-05-03T02:04:08.726Z,11.40
2017-05-03T02:06:37.042Z,11.40
2017-05-03T02:09:05.390Z,11.40
2017-05-03T02:11:33.686Z,11.40
2017-05-03T02:14:01.987Z,11.40
2017-05-03T02:16:31.074Z,11.40
2017-05-03T02:19:00.118Z,11.40
2017-05-03T02:21:28.415Z,11.40
2017-05-03T02:23:57.498Z,11.40
2017-05-03T02:26:26.530Z,11.40
2017-05-03T02:28:55.516Z,11.40
2017-05-03T02:31:23.862Z,11.40
2017-05-03T02:33:52.158Z,11.40
2017-05-03T02:36:20.461Z,11.40
2017-05-03T02:38:49.091Z,11.40
2017-05-03T02:41:17.390Z,11.50
2017-05-03T02:43:45.685Z,11.50
2017-05-03T02:46:14.026Z,11.50
2017-05-03T02:48:42.324Z,11.60
2017-05-03T02:51:10.618Z,11.60
2017-05-03T02:53:39.698Z,11.60
2017-05-03T02:56:08.735Z,11.60
2017-05-03T02:58:37.033Z,11.60
2017-05-03T03:01:05.386Z,11.60
2017-05-03T03:03:33.693Z,11.60
2017-05-03T03:06:01.995Z,11.60
2017-05-03T03:08:30.363Z,11.60
2017-05-03T03:10:58.662Z,11.60
2017-05-03T03:13:26.958Z,11.70
2017-05-03T03:15:55.466Z,11.70
2017-05-03T03:18:23.763Z,11.70
2017-05-03T03:20:52.057Z,11.70
2017-05-03T03:23:20.410Z,11.80
2017-05-03T03:25:48.711Z,11.80
2017-05-03T03:28:17.758Z,11.70
2017-05-03T03:30:46.106Z,11.80
2017-05-03T03:33:14.398Z,11.80
2017-05-03T03:35:42.694Z,11.80
2017-05-03T03:38:12.363Z,11.80
2017-05-03T03:40:40.658Z,11.80
2017-05-03T03:43:08.950Z,11.80
2017-05-03T03:45:38.486Z,11.80
2017-05-03T03:48:06.782Z,11.80
2017-05-03T03:50:35.082Z,11.80
2017-05-03T03:53:03.429Z,11.80
2017-05-03T03:55:31.730Z,11.80
2017-05-03T03:58:00.030Z,11.80
2017-05-03T04:00:28.638Z,11.80
2017-05-03T04:02:56.934Z,11.80
2017-05-03T04:05:25.967Z,11.80
2017-05-03T04:07:54.314Z,11.80
2017-05-03T04:10:22.611Z,11.80
2017-05-03T04:12:50.902Z,11.80
2017-05-03T04:15:20.286Z,11.80
2017-05-03T04:17:49.336Z,11.80
2017-05-03T04:20:17.634Z,11.80
2017-05-03T04:22:46.718Z,11.80
2017-05-03T04:25:15.013Z,11.80
2017-05-03T04:27:43.301Z,11.80
2017-05-03T04:30:11.921Z,11.80
2017-05-03T04:32:40.215Z,11.80
2017-05-03T04:35:08.510Z,11.80
2017-05-03T04:37:36.853Z,11.80
2017-05-03T04:40:05.150Z,11.80
2017-05-03T04:42:34.200Z,11.80
2017-05-03T04:45:02.549Z,11.80
2017-05-03T04:47:30.858Z,11.90
2017-05-03T04:49:59.156Z,11.90
2017-05-03T04:52:28.157Z,11.90
2017-05-03T04:54:56.454Z,11.90
2017-05-03T04:57:24.746Z,11.90
2017-05-03T04:59:53.115Z,11.90
2017-05-03T05:02:21.410Z,11.90
2017-05-03T05:04:49.718Z,11.90
2017-05-03T05:07:18.066Z,12.00
2017-05-03T05:09:47.102Z,12.00
2017-05-03T05:12:16.410Z,12.00
2017-05-03T05:14:45.138Z,12.00
2017-05-03T05:17:13.430Z,12.00
2017-05-03T05:19:41.727Z,12.00
2017-05-03T05:22:10.810Z,12.00
2017-05-03T05:24:39.846Z,11.90
2017-05-03T05:27:08.138Z,11.90
2017-05-03T05:29:36.478Z,11.90
2017-05-03T05:32:04.777Z,11.90
2017-05-03T05:34:33.818Z,11.90
2017-05-03T05:37:02.166Z,12.00
2017-05-03T05:39:30.470Z,11.90
2017-05-03T05:41:59.506Z,11.90
2017-05-03T05:44:27.995Z,11.90
2017-05-03T05:46:56.289Z,12.00
2017-05-03T05:49:25.343Z,11.90
2017-05-03T05:51:53.838Z,11.90
2017-05-03T05:54:22.874Z,11.90
2017-05-03T05:56:51.174Z,11.90
2017-05-03T05:59:20.254Z,11.90
2017-05-03T06:01:49.290Z,12.00
2017-05-03T06:04:17.589Z,12.00
2017-05-03T06:06:46.951Z,12.00
2017-05-03T06:09:15.670Z,12.10
2017-05-03T06:11:43.970Z,12.10
2017-05-03T06:14:12.310Z,12.10
2017-05-03T06:16:40.626Z,12.10
2017-05-03T06:19:08.931Z,12.10
2017-05-03T06:21:37.274Z,12.00
2017-05-03T06:24:05.585Z,12.00
2017-05-03T06:26:33.889Z,12.00
2017-05-03T06:29:02.989Z,11.80
2017-05-03T06:31:31.287Z,11.80
2017-05-03T06:33:59.620Z,11.70
2017-05-03T06:36:27.974Z,11.80
2017-05-03T06:38:56.291Z,11.80
2017-05-03T06:41:24.587Z,11.60
2017-05-03T06:43:53.755Z,11.60
2017-05-03T06:46:22.789Z,11.60
2017-05-03T06:48:51.142Z,11.60
2017-05-03T06:51:19.482Z,11.70
2017-05-03T06:53:47.774Z,11.50
2017-05-03T06:56:17.090Z,11.60
2017-05-03T06:58:45.430Z,11.70
2017-05-03T07:01:13.730Z,11.60
2017-05-03T07:03:42.761Z,11.60
2017-05-03T07:06:11.434Z,11.50
2017-05-03T07:08:39.734Z,11.60
2017-05-03T07:11:08.041Z,11.70
2017-05-03T07:13:36.395Z,11.70
2017-05-03T07:16:04.694Z,11.90
2017-05-03T07:18:33.002Z,12.20
2017-05-03T07:21:01.362Z,12.40
2017-05-03T07:23:29.674Z,12.40
2017-05-03T07:25:57.978Z,12.40
2017-05-03T07:28:27.069Z,12.40
2017-05-03T07:30:55.410Z,12.50
2017-05-03T07:33:23.774Z,12.60
2017-05-03T07:35:52.111Z,12.70
2017-05-03T07:38:20.410Z,12.80
2017-05-03T07:40:49.442Z,12.90
2017-05-03T07:43:17.784Z,13.10
2017-05-03T07:45:46.078Z,13.40
2017-05-03T07:48:14.369Z,13.70
2017-05-03T07:50:42.710Z,13.90
2017-05-03T07:53:11.002Z,13.90
2017-05-03T07:55:40.037Z,14.00
2017-05-03T07:58:08.618Z,14.00
2017-05-03T08:00:36.918Z,14.00
2017-05-03T08:03:04.503Z,14.00
2017-05-03T08:05:32.888Z,14.20
2017-05-03T08:08:01.203Z,14.20
2017-05-03T08:10:29.490Z,14.30
2017-05-03T08:12:57.827Z,14.10
2017-05-03T08:15:26.118Z,14.10
2017-05-03T08:17:54.400Z,14.10
2017-05-03T08:20:21.962Z,14.10
2017-05-03T08:22:50.243Z,14.60
2017-05-03T08:25:18.534Z,14.60
2017-05-03T08:27:46.875Z,14.70
2017-05-03T08:30:15.166Z,14.80
2017-05-03T08:32:43.452Z,14.90
2017-05-03T08:35:11.781Z,15.00
2017-05-03T08:37:40.087Z,15.00
2017-05-03T08:40:08.379Z,15.30
2017-05-03T08:42:36.730Z,15.40
2017-05-03T08:45:05.761Z,15.30
2017-05-03T08:47:34.054Z,15.30
2017-05-03T08:50:02.407Z,15.30
2017-05-03T08:52:30.714Z,15.40
2017-05-03T08:54:59.003Z,15.50
2017-05-03T08:57:27.630Z,15.60
2017-05-03T08:59:55.922Z,15.60
2017-05-03T09:02:24.206Z,15.70
2017-05-03T09:04:52.673Z,15.80
2017-05-03T09:07:20.959Z,15.80
2017-05-03T09:09:49.258Z,16.00
2017-05-03T09:12:17.594Z,16.30
2017-05-03T09:14:45.875Z,16.60
2017-05-03T09:17:14.916Z,17.00
2017-05-03T09:19:43.254Z,17.40
2017-05-03T09:22:11.543Z,17.40
2017-05-03T09:24:39.830Z,17.60
2017-05-03T09:27:08.914Z,17.80
2017-05-03T09:29:37.946Z,18.00
2017-05-03T09:32:06.238Z,18.40
2017-05-03T09:34:34.907Z,18.70
2017-05-03T09:37:03.211Z,19.20
2017-05-03T09:39:31.502Z,19.50
2017-05-03T09:41:59.842Z,20.20
2017-05-03T09:44:28.138Z,21.10
2017-05-03T09:46:56.430Z,22.20
2017-05-03T09:49:25.506Z,23.50
2017-05-03T09:51:53.795Z,24.40
2017-05-03T09:54:22.078Z,24.50
2017-05-03T09:56:50.406Z,23.70
2017-05-03T09:59:18.699Z,22.70
2017-05-03T10:01:46.986Z,21.80
2017-05-03T10:04:15.669Z,21.60
2017-05-03T10:06:44.881Z,21.60
2017-05-03T10:09:13.906Z,21.30
2017-05-03T10:11:42.238Z,20.80
2017-05-03T10:14:10.527Z,20.30
2017-05-03T10:16:38.814Z,19.80
2017-05-03T10:19:07.179Z,19.30
2017-05-03T10:21:35.467Z,18.90
2017-05-03T10:24:04.502Z,18.70
2017-05-03T10:26:32.931Z,18.50
2017-05-03T10:29:01.222Z,18.30
2017-05-03T10:31:29.521Z,18.20
2017-05-03T10:33:57.849Z,18.10
2017-05-03T10:36:26.129Z,18.20
2017-05-03T10:38:54.418Z,18.30
2017-05-03T10:41:23.497Z,18.30
2017-05-03T10:43:52.521Z,18.60
2017-05-03T10:46:20.811Z,19.00
2017-05-03T10:48:49.141Z,19.10
2017-05-03T10:51:17.425Z,19.10
2017-05-03T10:53:45.705Z,19.20
2017-05-03T10:56:14.034Z,19.10
2017-05-03T10:58:42.318Z,18.90
2017-05-03T11:01:10.601Z,18.60
2017-05-03T11:03:39.673Z,18.40
2017-05-03T11:06:07.953Z,18.30
2017-05-03T11:08:36.973Z,18.20
2017-05-03T11:11:05.306Z,18.10
2017-05-03T11:13:33.597Z,17.90
2017-05-03T11:16:01.890Z,17.50
2017-05-03T11:18:30.229Z,17.30
2017-05-03T11:20:58.525Z,17.10
2017-05-03T11:23:26.814Z,17.00
2017-05-03T11:25:55.141Z,16.90
2017-05-03T11:28:23.426Z,16.90
2017-05-03T11:30:51.709Z,16.90
2017-05-03T11:33:20.037Z,16.80
2017-05-03T11:35:48.322Z,16.90
2017-05-03T11:38:16.605Z,17.00
2017-05-03T11:40:44.942Z,17.00
2017-05-03T11:43:12.822Z,17.00
2017-05-03T11:45:41.105Z,17.00
2017-05-03T11:48:09.437Z,16.90
2017-05-03T11:50:37.722Z,16.80
2017-05-03T11:53:06.017Z,16.70
2017-05-03T11:55:34.349Z,16.70
2017-05-03T11:58:02.646Z,16.70
2017-05-03T12:00:31.678Z,16.70
2017-05-03T12:03:00.011Z,16.80
2017-05-03T12:05:28.298Z,16.80
2017-05-03T12:07:56.589Z,16.90
2017-05-03T12:10:24.926Z,16.90
2017-05-03T12:12:53.205Z,17.10
2017-05-03T12:15:21.889Z,17.30
2017-05-03T12:17:50.226Z,17.50
2017-05-03T12:20:18.518Z,17.60
2017-05-03T12:22:46.801Z,17.90
2017-05-03T12:25:15.870Z,18.10
2017-05-03T12:27:44.150Z,18.40
2017-05-03T12:30:13.174Z,18.70
2017-05-03T12:32:41.534Z,19.00
2017-05-03T12:35:10.734Z,19.30
2017-05-03T12:37:39.026Z,19.60
2017-05-03T12:40:07.390Z,19.70
2017-05-03T12:42:36.414Z,19.90
2017-05-03T12:45:04.714Z,19.90
2017-05-03T12:47:33.080Z,19.90
2017-05-03T12:50:01.374Z,20.00
2017-05-03T12:52:29.660Z,19.80
2017-05-03T12:54:58.007Z,19.70
2017-05-03T12:57:26.298Z,19.80
2017-05-03T12:59:54.579Z,19.90
2017-05-03T13:02:22.946Z,20.00
2017-05-03T13:04:51.233Z,20.10
2017-05-03T13:07:19.564Z,20.10
2017-05-03T13:09:48.167Z,20.10
2017-05-03T13:12:17.195Z,20.10
2017-05-03T13:14:45.900Z,20.10
2017-05-03T13:17:14.238Z,20.10
2017-05-03T13:19:42.526Z,20.10
2017-05-03T13:22:10.810Z,20.10
2017-05-03T13:24:39.153Z,20.10
2017-05-03T13:27:08.187Z,20.00
2017-05-03T13:29:36.476Z,19.90
2017-05-03T13:32:04.818Z,19.80
2017-05-03T13:34:33.111Z,19.70
2017-05-03T13:37:01.405Z,19.60
2017-05-03T13:39:29.736Z,19.50
2017-05-03T13:41:58.017Z,19.50
2017-05-03T13:44:26.335Z,19.50
2017-05-03T13:46:54.669Z,19.50
2017-05-03T13:49:22.949Z,19.50
2017-05-03T13:51:51.229Z,19.50
2017-05-03T13:54:19.846Z,19.40
2017-05-03T13:56:48.129Z,19.40
2017-05-03T13:59:16.410Z,19.40
2017-05-03T14:01:44.741Z,19.40
2017-05-03T14:04:13.039Z,19.30
2017-05-03T14:06:41.329Z,19.30
2017-05-03T14:09:09.953Z,19.30
2017-05-03T14:11:38.267Z,19.30
2017-05-03T14:14:07.320Z,19.30
2017-05-03T14:16:35.671Z,19.20
2017-05-03T14:19:03.966Z,19.20
2017-05-03T14:21:33.002Z,19.20
2017-05-03T14:24:01.427Z,19.10
2017-05-03T14:26:29.718Z,19.00
2017-05-03T14:28:58.001Z,19.00
2017-05-03T14:31:26.557Z,18.90
2017-05-03T14:33:54.842Z,18.80
2017-05-03T14:36:23.130Z,18.60
2017-05-03T14:38:52.902Z,18.60
2017-05-03T14:41:21.197Z,18.50
2017-05-03T14:43:50.225Z,18.40
2017-05-03T14:46:18.558Z,18.40
2017-05-03T14:48:46.841Z,18.30
2017-05-03T14:51:15.125Z,18.10
2017-05-03T14:53:43.657Z,18.10
2017-05-03T14:56:11.939Z,18.00
2017-05-03T14:58:40.226Z,17.90
2017-05-03T15:01:08.574Z,17.80
2017-05-03T15:03:36.861Z,17.70
2017-05-03T15:06:05.889Z,17.70
2017-05-03T15:08:35.204Z,17.60
2017-05-03T15:11:04.250Z,17.50
2017-05-03T15:13:32.554Z,17.30
2017-05-03T15:16:00.942Z,17.20
2017-05-03T15:18:29.975Z,17.00
2017-05-03T15:20:58.263Z,16.90
2017-05-03T15:23:27.037Z,16.90
2017-05-03T15:25:55.318Z,16.90
2017-05-03T15:28:24.343Z,16.90
2017-05-03T15:30:52.674Z,16.90
2017-05-03T15:33:20.953Z,17.00
2017-05-03T15:35:49.245Z,17.10
2017-05-03T15:38:17.578Z,17.20
2017-05-03T15:40:45.862Z,17.10
2017-05-03T15:43:14.145Z,17.10
2017-05-03T15:45:42.470Z,17.20
2017-05-03T15:48:10.758Z,17.10
2017-05-03T15:50:39.054Z,17.10
2017-05-03T15:53:07.395Z,17.00
2017-05-03T15:55:36.431Z,17.00
2017-05-03T15:58:04.718Z,17.10
2017-05-03T16:00:33.058Z,17.10
2017-05-03T16:03:01.352Z,17.10
2017-05-03T16:05:29.637Z,17.10
2017-05-03T16:07:58.706Z,17.00
2017-05-03T16:10:27.734Z,16.90
2017-05-03T16:12:56.018Z,16.90
2017-05-03T16:15:24.498Z,16.80
2017-05-03T16:17:52.877Z,16.80
2017-05-03T16:20:21.918Z,16.80
2017-05-03T16:22:50.255Z,16.80
2017-05-03T16:25:18.545Z,16.80
2017-05-03T16:27:46.825Z,16.80
2017-05-03T16:30:15.149Z,16.80
2017-05-03T16:32:43.429Z,16.80
2017-05-03T16:35:11.726Z,16.70
2017-05-03T16:37:41.002Z,16.70
2017-05-03T16:40:09.281Z,16.70
2017-05-03T16:42:38.316Z,16.60
2017-05-03T16:45:06.643Z,16.60
2017-05-03T16:47:34.948Z,16.60
2017-05-03T16:50:03.267Z,16.60
2017-05-03T16:52:31.618Z,16.50
2017-05-03T16:54:59.908Z,16.50
2017-05-03T16:57:28.216Z,16.50
2017-05-03T16:59:56.547Z,16.40
2017-05-03T17:02:24.830Z,16.30
2017-05-03T17:04:53.117Z,16.30
2017-05-03T17:07:22.185Z,16.20
2017-05-03T17:09:50.474Z,16.20
2017-05-03T17:12:18.762Z,16.20
2017-05-03T17:23:56.891Z,17.10
2017-05-03T17:28:55.830Z,17.00
2017-05-03T17:31:24.118Z,16.90
2017-05-03T17:33:52.414Z,16.70
2017-05-03T17:38:50.010Z,16.30
2017-05-03T17:41:18.306Z,16.10
2017-05-03T17:43:46.606Z,15.90
2017-05-03T17:46:15.270Z,15.80
2017-05-03T17:48:44.350Z,15.60
2017-05-03T17:51:12.277Z,15.50
2017-05-03T17:53:40.579Z,15.50
2017-05-03T17:56:09.011Z,15.50
2017-05-03T17:58:38.058Z,15.40
2017-05-03T18:01:06.737Z,15.30
2017-05-03T18:03:35.095Z,15.20
2017-05-03T18:06:03.042Z,15.20
2017-05-03T18:08:31.002Z,14.90
2017-05-03T18:10:59.306Z,14.90
2017-05-03T18:13:27.893Z,14.90
2017-05-03T18:15:56.207Z,14.90
2017-05-03T18:18:24.155Z,14.90
2017-05-03T18:20:52.819Z,14.80
2017-05-03T18:23:21.114Z,14.70
2017-05-03T18:30:46.810Z,14.70
2017-05-03T18:33:15.106Z,14.70
2017-05-03T18:35:43.402Z,14.60
2017-05-03T18:38:11.703Z,14.60
2017-05-03T18:40:40.379Z,14.60
2017-05-03T18:45:37.587Z,14.60
2017-05-03T18:50:35.163Z,14.50
2017-05-03T18:53:03.193Z,14.60
2017-05-03T18:55:31.969Z,14.60
2017-05-03T18:58:00.269Z,14.50
2017-05-03T19:00:28.570Z,14.50
2017-05-03T19:02:56.866Z,14.50
2017-05-03T19:07:54.419Z,14.50
2017-05-03T19:12:51.968Z,14.50
2017-05-03T19:15:20.276Z,14.50
2017-05-03T19:17:49.334Z,14.50
2017-05-03T19:20:17.630Z,14.40
2017-05-03T19:22:46.298Z,14.30
2017-05-03T19:25:14.599Z,14.30
2017-05-03T19:27:42.523Z,14.20
2017-05-03T19:30:10.814Z,14.10
2017-05-03T19:32:39.850Z,14.10
2017-05-03T19:35:08.887Z,14.10
2017-05-03T19:37:37.190Z,14.10
2017-05-03T19:40:05.505Z,14.00
2017-05-03T19:42:33.823Z,14.10
2017-05-03T19:45:03.372Z,14.10
2017-05-03T19:47:32.374Z,14.10
2017-05-03T19:54:59.446Z,14.10
2017-05-03T19:59:56.246Z,14.10
2017-05-03T20:02:25.350Z,14.10
2017-05-03T20:04:54.402Z,14.20
2017-05-03T20:07:22.698Z,14.10
2017-05-03T20:09:50.682Z,14.10
2017-05-03T20:12:18.611Z,14.10
2017-05-03T20:14:47.283Z,14.10
2017-05-03T20:19:44.134Z,13.90
2017-05-03T20:22:13.165Z,13.90
2017-05-03T20:24:42.086Z,13.90
2017-05-03T20:29:39.999Z,13.90
2017-05-03T20:32:08.342Z,13.90
2017-05-03T20:37:05.892Z,13.80
2017-05-03T20:39:35.002Z,13.90
2017-05-03T20:42:02.935Z,13.80
2017-05-03T20:47:01.243Z,13.80
2017-05-03T20:49:30.287Z,13.70
2017-05-03T20:51:58.594Z,13.80
2017-05-03T20:54:26.562Z,13.70
2017-05-03T20:56:54.493Z,13.60
2017-05-03T20:59:22.794Z,13.50
2017-05-03T21:01:51.154Z,13.40
2017-05-03T21:04:19.090Z,13.40
2017-05-03T21:06:47.395Z,13.40
2017-05-03T21:09:16.078Z,13.50
2017-05-03T21:11:44.374Z,13.40
2017-05-03T21:14:12.302Z,13.40
2017-05-03T21:16:40.274Z,13.40
2017-05-03T21:19:08.570Z,13.40
2017-05-03T21:24:05.812Z,13.50
2017-05-03T21:26:34.126Z,13.50
2017-05-03T21:29:02.063Z,13.50
2017-05-03T21:31:30.406Z,13.50
2017-05-03T21:33:59.075Z,13.50
2017-05-03T21:36:27.373Z,13.50
2017-05-03T21:38:56.039Z,13.50
2017-05-03T21:41:24.705Z,13.50
2017-05-03T21:46:23.573Z,13.50
2017-05-03T21:48:51.883Z,13.50
2017-05-03T21:51:20.187Z,13.50
2017-05-03T21:56:18.174Z,13.50
2017-05-03T22:01:15.770Z,13.50
2017-05-03T22:03:43.694Z,13.50
2017-05-03T22:06:11.620Z,13.50
2017-05-03T22:13:38.094Z,13.40
2017-05-03T22:16:06.450Z,13.50
2017-05-03T22:18:34.387Z,13.40
2017-05-03T22:21:02.322Z,13.40
2017-05-03T22:23:31.596Z,13.40
2017-05-03T22:26:00.653Z,13.40
2017-05-03T22:28:29.732Z,13.40
2017-05-03T22:30:58.082Z,13.40
2017-05-03T22:35:55.646Z,13.30
2017-05-03T22:38:23.992Z,13.30
2017-05-03T22:40:52.662Z,13.30
2017-05-03T22:43:21.354Z,13.40
2017-05-03T22:48:18.988Z,13.30
2017-05-03T22:50:47.658Z,13.20
2017-05-03T22:53:16.016Z,13.20
2017-05-03T22:55:44.687Z,13.30
2017-05-03T22:58:12.987Z,13.20
2017-05-03T23:00:42.079Z,13.30
2017-05-03T23:03:10.379Z,13.20
2017-05-03T23:05:38.315Z,13.20
2017-05-03T23:08:06.659Z,13.20
2017-05-03T23:10:34.978Z,13.20
2017-05-03T23:13:03.299Z,13.20
2017-05-03T23:15:31.294Z,13.20
2017-05-03T23:22:57.399Z,13.10
2017-05-03T23:25:26.438Z,13.00
2017-05-03T23:27:54.734Z,13.00
2017-05-03T23:30:23.450Z,13.00
2017-05-03T23:37:49.960Z,13.00
2017-05-03T23:40:17.893Z,13.00
2017-05-03T23:42:46.190Z,13.00
2017-05-03T23:45:14.162Z,12.90
2017-05-03T23:47:42.463Z,12.90
2017-05-03T23:50:10.762Z,12.90
2017-05-03T23:55:07.986Z,12.80
